< Cyclone 197909 1979 Season Cyclone 197911 >
Cyclone 197910 (JANE)
General InformationTrack Information on Google MapsList of All Images || ResourceGoogle EarthGE AnimationAtom FeedGeoJSON
Detalied Best Track (Time Zone = UTC)
Year Month Day Hour Lat. Long. Pressure (hPa) Wind (kt) Class Image Chart
1979 4 8 00 -7.1 91.2 1000 0 0 Image --
1979 4 8 06 -7.5 91.2 999 0 0 Image --
1979 4 8 12 -8.1 91.1 999 0 0 Image --
1979 4 8 18 -9.5 91.2 998 0 0 Image --
1979 4 9 00 -10.8 91.8 998 0 0 Image --
1979 4 9 06 -11.4 92.2 997 0 0 Image --
1979 4 9 12 -11.8 92.6 996 0 0 Image --
1979 4 9 18 -12.1 93.0 995 0 0 Image --
1979 4 10 00 -12.7 93.4 994 0 0 Image --
1979 4 10 06 -12.9 93.6 993 0 0 Image --
1979 4 10 12 -13.1 93.8 992 0 0 Image --
1979 4 10 18 -13.3 94.0 991 0 0 Image --
1979 4 11 00 -13.5 94.2 990 0 0 Image --
1979 4 11 06 -13.9 94.5 989 0 0 Image --
1979 4 11 12 -14.2 94.9 988 0 0 Image --
1979 4 11 18 -14.5 95.3 989 0 0 Image --
1979 4 12 00 -14.8 95.7 990 0 0 Image --
1979 4 12 06 -15.2 96.2 991 0 0 Image --
1979 4 12 12 -15.8 96.9 992 0 0 Image --
1979 4 12 18 -16.3 97.4 993 0 0 Image --
1979 4 13 00 -16.8 98.0 994 0 0 Image --
1979 4 13 06 -17.3 98.5 994 0 0 Image --
1979 4 13 12 -17.9 99.0 995 0 0 Image --
1979 4 13 18 -18.3 99.6 995 0 0 Image --
1979 4 14 00 -18.8 100.3 995 0 0 Image --
< Cyclone 197909 1979 Season Cyclone 197911 >

Help